sensor_id;sensor_type;location;lat;lon;timestamp;pressure;altitude;pressure_sealevel;temperature;humidity
68994;BME280;56054;50.968;5.816;2023-02-19T05:44:20;101292.31;;;9.68;100.00
68994;BME280;56054;50.968;5.816;2023-02-19T05:47:29;101288.69;;;9.66;100.00
68994;BME280;56054;50.968;5.816;2023-02-19T05:50:36;101296.00;;;9.60;100.00
68994;BME280;56054;50.968;5.816;2023-02-19T05:53:47;101295.78;;;9.57;100.00
68994;BME280;56054;50.968;5.816;2023-02-19T05:56:54;101285.16;;;9.54;100.00
68994;BME280;56054;50.968;5.816;2023-02-19T06:00:01;101295.63;;;9.55;100.00
68994;BME280;56054;50.968;5.816;2023-02-19T06:03:12;101292.16;;;9.55;100.00
68994;BME280;56054;50.968;5.816;2023-02-19T06:06:25;101290.59;;;9.57;100.00
68994;BME280;56054;50.968;5.816;2023-02-19T06:09:32;101297.47;;;9.56;100.00
68994;BME280;56054;50.968;5.816;2023-02-19T06:12:40;101298.38;;;9.57;100.00
68994;BME280;56054;50.968;5.816;2023-02-19T06:15:47;101302.88;;;9.59;100.00
68994;BME280;56054;50.968;5.816;2023-02-19T06:18:55;101300.72;;;9.54;100.00
68994;BME280;56054;50.968;5.816;2023-02-19T06:22:02;101302.00;;;9.59;100.00
68994;BME280;56054;50.968;5.816;2023-02-19T06:25:09;101308.63;;;9.55;100.00
68994;BME280;56054;50.968;5.816;2023-02-19T06:28:16;101303.19;;;9.52;100.00
68994;BME280;56054;50.968;5.816;2023-02-19T06:31:23;101301.63;;;9.54;100.00
68994;BME280;56054;50.968;5.816;2023-02-19T06:34:30;101317.06;;;9.53;100.00
68994;BME280;56054;50.968;5.816;2023-02-19T06:37:38;101315.28;;;9.52;100.00
68994;BME280;56054;50.968;5.816;2023-02-19T06:40:47;101325.53;;;9.50;100.00
68994;BME280;56054;50.968;5.816;2023-02-19T06:43:56;101325.66;;;9.52;100.00
68994;BME280;56054;50.968;5.816;2023-02-19T06:47:03;101325.66;;;9.52;100.00
68994;BME280;56054;50.968;5.816;2023-02-19T06:50:10;101326.69;;;9.54;100.00
68994;BME280;56054;50.968;5.816;2023-02-19T06:53:17;101334.88;;;9.48;100.00
68994;BME280;56054;50.968;5.816;2023-02-19T06:59:38;101347.38;;;9.42;100.00
68994;BME280;56054;50.968;5.816;2023-02-19T07:02:45;101353.47;;;9.42;100.00
68994;BME280;56054;50.968;5.816;2023-02-19T07:05:57;101357.75;;;9.42;100.00
68994;BME280;56054;50.968;5.816;2023-02-19T07:09:05;101361.91;;;9.40;100.00
68994;BME280;56054;50.968;5.816;2023-02-19T07:12:16;101363.19;;;9.45;100.00
68994;BME280;56054;50.968;5.816;2023-02-19T07:15:23;101370.97;;;9.45;100.00
68994;BME280;56054;50.968;5.816;2023-02-19T07:18:30;101369.53;;;9.49;100.00
68994;BME280;56054;50.968;5.816;2023-02-19T07:21:45;101368.38;;;9.45;100.00
68994;BME280;56054;50.968;5.816;2023-02-19T07:25:05;101381.56;;;9.48;100.00
68994;BME280;56054;50.968;5.816;2023-02-19T07:28:16;101385.19;;;9.50;100.00
68994;BME280;56054;50.968;5.816;2023-02-19T07:31:23;101392.59;;;9.46;100.00
68994;BME280;56054;50.968;5.816;2023-02-19T07:38:00;101392.88;;;9.49;100.00
68994;BME280;56054;50.968;5.816;2023-02-19T07:41:07;101396.38;;;9.49;100.00
68994;BME280;56054;50.968;5.816;2023-02-19T07:44:21;101406.97;;;9.52;100.00
68994;BME280;56054;50.968;5.816;2023-02-19T07:47:37;101412.97;;;9.51;100.00
68994;BME280;56054;50.968;5.816;2023-02-19T07:50:52;101415.78;;;9.54;100.00
68994;BME280;56054;50.968;5.816;2023-02-19T07:53:59;101413.28;;;9.56;100.00
68994;BME280;56054;50.968;5.816;2023-02-19T07:57:13;101417.47;;;9.54;100.00
68994;BME280;56054;50.968;5.816;2023-02-19T08:00:20;101431.34;;;9.54;100.00
68994;BME280;56054;50.968;5.816;2023-02-19T08:03:31;101425.94;;;9.51;100.00
68994;BME280;56054;50.968;5.816;2023-02-19T08:06:38;101441.50;;;9.51;100.00
68994;BME280;56054;50.968;5.816;2023-02-19T08:09:46;101437.31;;;9.53;100.00
68994;BME280;56054;50.968;5.816;2023-02-19T08:12:58;101450.19;;;9.52;100.00
68994;BME280;56054;50.968;5.816;2023-02-19T08:19:17;101461.31;;;9.51;100.00
68994;BME280;56054;50.968;5.816;2023-02-19T08:22:27;101465.09;;;9.54;100.00
68994;BME280;56054;50.968;5.816;2023-02-19T08:25:44;101465.19;;;9.56;100.00
68994;BME280;56054;50.968;5.816;2023-02-19T09:00:04;101521.81;;;9.17;100.00
68994;BME280;56054;50.968;5.816;2023-02-19T09:03:13;101507.38;;;9.21;100.00
68994;BME280;56054;50.968;5.816;2023-02-19T09:06:21;101523.56;;;9.29;100.00
68994;BME280;56054;50.968;5.816;2023-02-19T09:09:28;101511.91;;;9.24;100.00
68994;BME280;56054;50.968;5.816;2023-02-19T09:12:52;101525.53;;;9.21;100.00
68994;BME280;56054;50.968;5.816;2023-02-19T09:16:11;101520.91;;;9.17;100.00
68994;BME280;56054;50.968;5.816;2023-02-19T09:22:45;101525.94;;;9.15;100.00
68994;BME280;56054;50.968;5.816;2023-02-19T09:33:46;101549.78;;;9.21;100.00
68994;BME280;56054;50.968;5.816;2023-02-19T09:37:04;101544.97;;;9.26;100.00
68994;BME280;56054;50.968;5.816;2023-02-19T09:49:01;101531.09;;;9.26;100.00
68994;BME280;56054;50.968;5.816;2023-02-19T09:52:18;101524.22;;;9.26;100.00
68994;BME280;56054;50.968;5.816;2023-02-19T09:59:45;101542.63;;;9.29;100.00
68994;BME280;56054;50.968;5.816;2023-02-19T10:07:50;101553.72;;;9.38;100.00
68994;BME280;56054;50.968;5.816;2023-02-19T10:11:19;101561.78;;;9.31;100.00
68994;BME280;56054;50.968;5.816;2023-02-19T10:14:44;101576.97;;;9.37;100.00
68994;BME280;56054;50.968;5.816;2023-02-19T10:18:14;101589.38;;;9.41;100.00
68994;BME280;56054;50.968;5.816;2023-02-19T10:34:04;101613.28;;;9.37;100.00
68994;BME280;56054;50.968;5.816;2023-02-19T10:37:55;101603.81;;;9.37;100.00
68994;BME280;56054;50.968;5.816;2023-02-19T10:41:22;101616.91;;;9.39;100.00
68994;BME280;56054;50.968;5.816;2023-02-19T10:44:40;101618.09;;;9.32;100.00
68994;BME280;56054;50.968;5.816;2023-02-19T10:47:59;101621.06;;;9.37;100.00
68994;BME280;56054;50.968;5.816;2023-02-19T10:51:14;101637.41;;;9.36;100.00
68994;BME280;56054;50.968;5.816;2023-02-19T10:54:39;101642.72;;;9.37;100.00
68994;BME280;56054;50.968;5.816;2023-02-19T10:57:49;101647.41;;;9.41;100.00
68994;BME280;56054;50.968;5.816;2023-02-19T11:01:18;101658.66;;;9.42;100.00
68994;BME280;56054;50.968;5.816;2023-02-19T11:04:46;101662.97;;;9.41;100.00
68994;BME280;56054;50.968;5.816;2023-02-19T11:08:02;101666.03;;;9.48;100.00
68994;BME280;56054;50.968;5.816;2023-02-19T11:11:35;101672.41;;;9.51;100.00
68994;BME280;56054;50.968;5.816;2023-02-19T11:18:44;101677.22;;;9.47;100.00
68994;BME280;56054;50.968;5.816;2023-02-19T11:22:18;101672.75;;;9.66;100.00
68994;BME280;56054;50.968;5.816;2023-02-19T11:25:33;101674.28;;;9.74;100.00
68994;BME280;56054;50.968;5.816;2023-02-19T11:29:11;101679.34;;;9.62;100.00
68994;BME280;56054;50.968;5.816;2023-02-19T11:32:40;101672.13;;;9.58;100.00
68994;BME280;56054;50.968;5.816;2023-02-19T11:40:30;101653.06;;;9.48;100.00
68994;BME280;56054;50.968;5.816;2023-02-19T11:59:54;101661.00;;;9.29;100.00
68994;BME280;56054;50.968;5.816;2023-02-19T12:14:42;101640.13;;;9.37;100.00
68994;BME280;56054;50.968;5.816;2023-02-19T12:36:57;101635.06;;;9.39;100.00
68994;BME280;56054;50.968;5.816;2023-02-19T12:49:24;101652.59;;;9.21;100.00
68994;BME280;56054;50.968;5.816;2023-02-19T12:52:40;101656.75;;;9.19;100.00
68994;BME280;56054;50.968;5.816;2023-02-19T12:55:51;101652.88;;;9.14;100.00
68994;BME280;56054;50.968;5.816;2023-02-19T12:59:23;101634.34;;;9.19;100.00
68994;BME280;56054;50.968;5.816;2023-02-19T13:06:44;101655.06;;;9.30;100.00
68994;BME280;56054;50.968;5.816;2023-02-19T13:10:32;101659.84;;;9.35;100.00
68994;BME280;56054;50.968;5.816;2023-02-19T13:13:54;101653.22;;;9.29;100.00
68994;BME280;56054;50.968;5.816;2023-02-19T13:22:04;101649.97;;;9.31;100.00
68994;BME280;56054;50.968;5.816;2023-02-19T13:25:21;101659.19;;;9.38;100.00
68994;BME280;56054;50.968;5.816;2023-02-19T13:29:49;101674.09;;;9.40;100.00
68994;BME280;56054;50.968;5.816;2023-02-19T13:33:00;101680.06;;;9.39;100.00
68994;BME280;56054;50.968;5.816;2023-02-19T13:36:19;101674.88;;;9.39;100.00
68994;BME280;56054;50.968;5.816;2023-02-19T13:39:35;101666.44;;;9.42;100.00
68994;BME280;56054;50.968;5.816;2023-02-19T13:42:51;101665.78;;;9.45;100.00
68994;BME280;56054;50.968;5.816;2023-02-19T13:46:05;101662.41;;;9.46;100.00
68994;BME280;56054;50.968;5.816;2023-02-19T13:52:41;101673.06;;;9.49;100.00
68994;BME280;56054;50.968;5.816;2023-02-19T13:55:50;101675.25;;;9.54;100.00
68994;BME280;56054;50.968;5.816;2023-02-19T14:05:57;101683.66;;;9.62;100.00
68994;BME280;56054;50.968;5.816;2023-02-19T14:12:44;101707.78;;;9.51;100.00
68994;BME280;56054;50.968;5.816;2023-02-19T14:15:51;101710.53;;;9.52;100.00
68994;BME280;56054;50.968;5.816;2023-02-19T14:19:13;101717.41;;;9.52;100.00
68994;BME280;56054;50.968;5.816;2023-02-19T14:25:57;101716.63;;;9.53;100.00
68994;BME280;56054;50.968;5.816;2023-02-19T14:29:06;101710.38;;;9.51;100.00
68994;BME280;56054;50.968;5.816;2023-02-19T14:32:18;101725.69;;;9.58;100.00
68994;BME280;56054;50.968;5.816;2023-02-19T14:35:33;101729.72;;;9.54;100.00
68994;BME280;56054;50.968;5.816;2023-02-19T14:38:51;101738.94;;;9.51;100.00
68994;BME280;56054;50.968;5.816;2023-02-19T14:42:01;101738.16;;;9.52;100.00
68994;BME280;56054;50.968;5.816;2023-02-19T14:45:14;101750.09;;;9.50;100.00
68994;BME280;56054;50.968;5.816;2023-02-19T14:48:30;101746.97;;;9.43;100.00
68994;BME280;56054;50.968;5.816;2023-02-19T14:51:40;101749.56;;;9.43;100.00
68994;BME280;56054;50.968;5.816;2023-02-19T14:54:55;101750.22;;;9.41;100.00
68994;BME280;56054;50.968;5.816;2023-02-19T14:58:06;101747.63;;;9.41;100.00
68994;BME280;56054;50.968;5.816;2023-02-19T15:01:35;101756.31;;;9.31;100.00
68994;BME280;56054;50.968;5.816;2023-02-19T15:04:42;101747.53;;;9.29;100.00
68994;BME280;56054;50.968;5.816;2023-02-19T15:07:54;101744.66;;;9.26;100.00
68994;BME280;56054;50.968;5.816;2023-02-19T15:11:08;101748.94;;;9.26;100.00
68994;BME280;56054;50.968;5.816;2023-02-19T15:14:21;101741.81;;;9.33;100.00
68994;BME280;56054;50.968;5.816;2023-02-19T15:17:30;101747.00;;;9.23;100.00
68994;BME280;56054;50.968;5.816;2023-02-19T15:20:37;101735.84;;;9.24;100.00
68994;BME280;56054;50.968;5.816;2023-02-19T15:23:44;101729.50;;;9.20;100.00
68994;BME280;56054;50.968;5.816;2023-02-19T15:26:53;101725.34;;;9.23;100.00
68994;BME280;56054;50.968;5.816;2023-02-19T15:30:00;101719.63;;;9.16;100.00
68994;BME280;56054;50.968;5.816;2023-02-19T15:33:15;101714.84;;;9.21;100.00
68994;BME280;56054;50.968;5.816;2023-02-19T15:36:27;101725.75;;;9.17;100.00
68994;BME280;56054;50.968;5.816;2023-02-19T15:39:41;101708.22;;;9.14;100.00
68994;BME280;56054;50.968;5.816;2023-02-19T15:42:49;101698.25;;;9.09;100.00
68994;BME280;56054;50.968;5.816;2023-02-19T15:46:08;101705.78;;;9.16;100.00
68994;BME280;56054;50.968;5.816;2023-02-19T15:49:26;101693.31;;;9.12;100.00
68994;BME280;56054;50.968;5.816;2023-02-19T15:52:50;101694.91;;;9.10;100.00
68994;BME280;56054;50.968;5.816;2023-02-19T15:56:08;101696.44;;;9.08;100.00
68994;BME280;56054;50.968;5.816;2023-02-19T15:59:34;101688.78;;;9.09;100.00
68994;BME280;56054;50.968;5.816;2023-02-19T16:02:44;101698.38;;;9.10;100.00
68994;BME280;56054;50.968;5.816;2023-02-19T16:06:03;101705.28;;;9.10;100.00
68994;BME280;56054;50.968;5.816;2023-02-19T16:09:32;101712.50;;;9.14;100.00
68994;BME280;56054;50.968;5.816;2023-02-19T16:12:40;101710.69;;;9.13;100.00
68994;BME280;56054;50.968;5.816;2023-02-19T16:16:00;101722.63;;;9.00;100.00
68994;BME280;56054;50.968;5.816;2023-02-19T16:19:09;101737.13;;;8.98;100.00
68994;BME280;56054;50.968;5.816;2023-02-19T16:22:19;101737.53;;;8.93;100.00
68994;BME280;56054;50.968;5.816;2023-02-19T16:25:39;101746.97;;;8.92;100.00
68994;BME280;56054;50.968;5.816;2023-02-19T16:28:51;101755.53;;;8.91;100.00
68994;BME280;56054;50.968;5.816;2023-02-19T16:32:06;101764.34;;;8.93;100.00
68994;BME280;56054;50.968;5.816;2023-02-19T16:35:42;101787.56;;;9.02;100.00
68994;BME280;56054;50.968;5.816;2023-02-19T16:42:20;101783.56;;;8.95;100.00
68994;BME280;56054;50.968;5.816;2023-02-19T16:45:27;101797.75;;;8.80;100.00
68994;BME280;56054;50.968;5.816;2023-02-19T16:48:34;101788.16;;;8.79;100.00
68994;BME280;56054;50.968;5.816;2023-02-19T16:51:43;101789.47;;;8.74;100.00
68994;BME280;56054;50.968;5.816;2023-02-19T16:54:50;101789.31;;;8.72;100.00
68994;BME280;56054;50.968;5.816;2023-02-19T16:58:02;101794.38;;;8.71;100.00
68994;BME280;56054;50.968;5.816;2023-02-19T17:01:12;101796.69;;;8.68;100.00
68994;BME280;56054;50.968;5.816;2023-02-19T17:04:33;101795.66;;;8.66;100.00
68994;BME280;56054;50.968;5.816;2023-02-19T17:07:51;101805.09;;;8.65;100.00
68994;BME280;56054;50.968;5.816;2023-02-19T17:11:00;101817.53;;;8.59;100.00
68994;BME280;56054;50.968;5.816;2023-02-19T17:14:07;101821.81;;;8.59;100.00
68994;BME280;56054;50.968;5.816;2023-02-19T17:29:23;101838.06;;;8.47;100.00
68994;BME280;56054;50.968;5.816;2023-02-19T17:32:31;101847.16;;;8.52;100.00
68994;BME280;56054;50.968;5.816;2023-02-19T17:35:49;101859.34;;;8.53;100.00
68994;BME280;56054;50.968;5.816;2023-02-19T17:39:00;101849.97;;;8.45;100.00
68994;BME280;56054;50.968;5.816;2023-02-19T17:42:07;101857.63;;;8.44;100.00
68994;BME280;56054;50.968;5.816;2023-02-19T17:45:14;101855.16;;;8.45;100.00
68994;BME280;56054;50.968;5.816;2023-02-19T17:48:22;101855.28;;;8.47;100.00
68994;BME280;56054;50.968;5.816;2023-02-19T17:51:29;101864.34;;;8.42;100.00
68994;BME280;56054;50.968;5.816;2023-02-19T17:54:36;101868.47;;;8.40;100.00
68994;BME280;56054;50.968;5.816;2023-02-19T17:57:44;101874.81;;;8.43;100.00
68994;BME280;56054;50.968;5.816;2023-02-19T18:00:52;101872.41;;;8.36;100.00
68994;BME280;56054;50.968;5.816;2023-02-19T18:04:02;101888.75;;;8.35;100.00
68994;BME280;56054;50.968;5.816;2023-02-19T18:07:12;101890.00;;;8.30;100.00
68994;BME280;56054;50.968;5.816;2023-02-19T18:10:26;101882.03;;;8.37;100.00
68994;BME280;56054;50.968;5.816;2023-02-19T18:13:53;101881.19;;;8.28;100.00
68994;BME280;56054;50.968;5.816;2023-02-19T18:17:06;101880.19;;;8.36;100.00
68994;BME280;56054;50.968;5.816;2023-02-19T18:20:31;101882.97;;;8.29;100.00
68994;BME280;56054;50.968;5.816;2023-02-19T18:23:41;101884.56;;;8.27;100.00
68994;BME280;56054;50.968;5.816;2023-02-19T18:26:47;101883.41;;;8.33;100.00
68994;BME280;56054;50.968;5.816;2023-02-19T18:30:18;101890.22;;;8.23;100.00
68994;BME280;56054;50.968;5.816;2023-02-19T18:33:34;101888.88;;;8.18;100.00
68994;BME280;56054;50.968;5.816;2023-02-19T18:40:33;101883.44;;;8.14;100.00
68994;BME280;56054;50.968;5.816;2023-02-19T18:47:06;101880.56;;;8.11;100.00
68994;BME280;56054;50.968;5.816;2023-02-19T18:50:15;101879.38;;;8.08;100.00
68994;BME280;56054;50.968;5.816;2023-02-19T18:56:44;101885.38;;;7.98;100.00
68994;BME280;56054;50.968;5.816;2023-02-19T19:00:00;101892.72;;;7.93;100.00
68994;BME280;56054;50.968;5.816;2023-02-19T19:03:07;101896.69;;;7.90;100.00
68994;BME280;56054;50.968;5.816;2023-02-19T19:06:40;101900.06;;;7.89;100.00
68994;BME280;56054;50.968;5.816;2023-02-19T19:09:49;101901.03;;;7.81;100.00
68994;BME280;56054;50.968;5.816;2023-02-19T19:13:00;101907.28;;;7.83;100.00
68994;BME280;56054;50.968;5.816;2023-02-19T19:16:10;101898.88;;;7.85;100.00
68994;BME280;56054;50.968;5.816;2023-02-19T19:19:16;101906.69;;;7.77;100.00
68994;BME280;56054;50.968;5.816;2023-02-19T19:22:23;101908.69;;;7.70;100.00
68994;BME280;56054;50.968;5.816;2023-02-19T19:25:59;101904.88;;;7.76;100.00
68994;BME280;56054;50.968;5.816;2023-02-19T19:29:17;101911.44;;;7.72;100.00
68994;BME280;56054;50.968;5.816;2023-02-19T19:32:26;101908.03;;;7.82;100.00
68994;BME280;56054;50.968;5.816;2023-02-19T19:35:32;101902.56;;;7.79;100.00
68994;BME280;56054;50.968;5.816;2023-02-19T19:38:49;101909.88;;;7.83;100.00
68994;BME280;56054;50.968;5.816;2023-02-19T19:42:10;101912.03;;;7.78;100.00
68994;BME280;56054;50.968;5.816;2023-02-19T19:45:17;101897.44;;;7.70;100.00
68994;BME280;56054;50.968;5.816;2023-02-19T19:48:24;101905.72;;;7.66;100.00
68994;BME280;56054;50.968;5.816;2023-02-19T19:51:44;101912.41;;;7.64;100.00
68994;BME280;56054;50.968;5.816;2023-02-19T19:54:55;101912.84;;;7.68;100.00
68994;BME280;56054;50.968;5.816;2023-02-19T19:58:02;101910.06;;;7.76;100.00
68994;BME280;56054;50.968;5.816;2023-02-19T20:01:35;101908.91;;;7.63;100.00
68994;BME280;56054;50.968;5.816;2023-02-19T20:04:43;101909.03;;;7.65;100.00
68994;BME280;56054;50.968;5.816;2023-02-19T20:07:52;101909.22;;;7.58;100.00
68994;BME280;56054;50.968;5.816;2023-02-19T20:11:01;101917.59;;;7.64;100.00
68994;BME280;56054;50.968;5.816;2023-02-19T20:14:08;101910.09;;;7.67;100.00
68994;BME280;56054;50.968;5.816;2023-02-19T20:17:16;101922.13;;;7.66;100.00
68994;BME280;56054;50.968;5.816;2023-02-19T20:20:23;101927.22;;;7.56;100.00
68994;BME280;56054;50.968;5.816;2023-02-19T20:23:29;101923.66;;;7.64;100.00
68994;BME280;56054;50.968;5.816;2023-02-19T20:26:39;101920.19;;;7.55;100.00
68994;BME280;56054;50.968;5.816;2023-02-19T20:29:46;101908.59;;;7.60;100.00
68994;BME280;56054;50.968;5.816;2023-02-19T20:32:53;101905.09;;;7.68;100.00
68994;BME280;56054;50.968;5.816;2023-02-19T20:36:00;101913.22;;;7.54;100.00
68994;BME280;56054;50.968;5.816;2023-02-19T20:39:07;101913.41;;;7.47;100.00
68994;BME280;56054;50.968;5.816;2023-02-19T20:42:14;101919.34;;;7.46;100.00
68994;BME280;56054;50.968;5.816;2023-02-19T20:45:22;101922.53;;;7.43;100.00
68994;BME280;56054;50.968;5.816;2023-02-19T20:48:31;101930.16;;;7.42;100.00
68994;BME280;56054;50.968;5.816;2023-02-19T20:51:46;101917.09;;;7.40;100.00
68994;BME280;56054;50.968;5.816;2023-02-19T20:54:55;101934.13;;;7.38;100.00
68994;BME280;56054;50.968;5.816;2023-02-19T20:58:02;101930.47;;;7.36;100.00
68994;BME280;56054;50.968;5.816;2023-02-19T21:01:10;101941.13;;;7.39;100.00
68994;BME280;56054;50.968;5.816;2023-02-19T21:04:20;101941.44;;;7.34;100.00
68994;BME280;56054;50.968;5.816;2023-02-19T21:07:26;101949.81;;;7.31;100.00
68994;BME280;56054;50.968;5.816;2023-02-19T21:10:34;101945.59;;;7.32;100.00
68994;BME280;56054;50.968;5.816;2023-02-19T21:13:44;101947.72;;;7.27;100.00
68994;BME280;56054;50.968;5.816;2023-02-19T21:16:52;101939.34;;;7.29;100.00
68994;BME280;56054;50.968;5.816;2023-02-19T21:20:05;101946.66;;;7.25;100.00
68994;BME280;56054;50.968;5.816;2023-02-19T21:23:38;101931.91;;;7.24;100.00
68994;BME280;56054;50.968;5.816;2023-02-19T21:27:04;101935.44;;;7.16;100.00
68994;BME280;56054;50.968;5.816;2023-02-19T21:30:14;101929.38;;;7.15;100.00
68994;BME280;56054;50.968;5.816;2023-02-19T21:36:59;101923.28;;;7.15;100.00
68994;BME280;56054;50.968;5.816;2023-02-19T21:40:32;101923.59;;;7.09;100.00
68994;BME280;56054;50.968;5.816;2023-02-19T21:43:45;101918.75;;;7.03;100.00
68994;BME280;56054;50.968;5.816;2023-02-19T21:47:05;101923.94;;;6.95;100.00
68994;BME280;56054;50.968;5.816;2023-02-19T21:50:25;101922.28;;;6.95;100.00
68994;BME280;56054;50.968;5.816;2023-02-19T21:53:31;101926.66;;;7.05;100.00
68994;BME280;56054;50.968;5.816;2023-02-19T21:57:35;101932.00;;;6.89;100.00
68994;BME280;56054;50.968;5.816;2023-02-19T22:00:43;101924.88;;;6.86;100.00
68994;BME280;56054;50.968;5.816;2023-02-19T22:04:18;101917.00;;;6.76;100.00
68994;BME280;56054;50.968;5.816;2023-02-19T22:07:51;101923.81;;;6.84;100.00
68994;BME280;56054;50.968;5.816;2023-02-19T22:11:04;101918.34;;;6.90;100.00
68994;BME280;56054;50.968;5.816;2023-02-19T22:14:39;101925.19;;;6.81;100.00
68994;BME280;56054;50.968;5.816;2023-02-19T22:22:20;101905.47;;;6.64;100.00
68994;BME280;56054;50.968;5.816;2023-02-19T22:25:28;101895.75;;;6.61;100.00
68994;BME280;56054;50.968;5.816;2023-02-19T22:28:37;101898.81;;;6.57;100.00
68994;BME280;56054;50.968;5.816;2023-02-19T22:31:44;101901.53;;;6.59;100.00
68994;BME280;56054;50.968;5.816;2023-02-19T22:34:51;101913.09;;;6.54;100.00
68994;BME280;56054;50.968;5.816;2023-02-19T22:37:59;101911.53;;;6.56;100.00
68994;BME280;56054;50.968;5.816;2023-02-19T22:41:06;101912.47;;;6.56;100.00
68994;BME280;56054;50.968;5.816;2023-02-19T22:47:44;101925.06;;;6.53;100.00
68994;BME280;56054;50.968;5.816;2023-02-19T22:50:59;101927.81;;;6.55;100.00
68994;BME280;56054;50.968;5.816;2023-02-19T22:54:06;101926.00;;;6.54;100.00
68994;BME280;56054;50.968;5.816;2023-02-19T22:57:13;101927.38;;;6.59;100.00
